ニース/コート・ダジュール の空港の天気 - METARとTAF

コート・ダジュール空港(ニース) ( LFMN / NCE ) - フランス ニース
飛行場実況気象(Metar)
観測時間06/23 03:30 CEST (06/23 01:30 UTC)
風向・風速北西 2m/s
視程10km以上
天気現象
少しの雲 雲底高度 850m
気温23℃
湿度83%
気圧1017hPa
METARLFMN 230130Z 32004KT 9999 FEW028 23/20 Q1017 NOSIG
過去の天気等 Google飛行場航空写真 Wunderground天気予報

過去48時間のMETAR

飛行場予報(TAF)
発表時間: 6/22 22:20 CEST (6/22 20:20 UTC)
予報対象時間: 22日23時 CEST ~ 24日5時 CEST
風向・風速不定 1m/s
視程10km以上
少しの雲 雲底高度 910m
全天の8割程度の雲 雲底高度 8,230m
22日23時 CEST ~ 23日14時 CEST に一時的に
全天の8割程度の雲 雲底高度 430m
23日2時 CEST ~ 23日4時 CEST に徐々に
風向・風速東 8m/s
23日14時 CEST ~ 23日16時 CEST に徐々に
視程10km以上
なし
23日16時 CEST ~ 23日17時 CEST に徐々に
風向・風速南 3m/s
23日17時 CEST ~ 23日22時 CEST に 確率 30% で一時的に
少しの積乱雲 雲底高度 1,220m
全天の4割程度の雲 雲底高度 3,960m
23日20時 CEST ~ 23日22時 CEST に徐々に
風向・風速不定 2m/s
TAF AMD LFMN 222020Z 2221/2403 VRB02KT 9999 FEW030 BKN270
TEMPO 2221/2312 BKN014
BECMG 2300/2302 08015KT
BECMG 2312/2314 CAVOK
BECMG 2314/2315 18005KT
PROB30 TEMPO 2315/2320 FEW040CB SCT130
BECMG 2318/2320 VRB03KT